createdAt,value
2023-05-12T00:01:31.026Z,11.80
2023-05-12T00:04:00.784Z,11.80
2023-05-12T00:06:29.338Z,11.80
2023-05-12T00:08:57.657Z,11.70
2023-05-12T00:11:26.273Z,11.70
2023-05-12T00:13:55.897Z,11.70
2023-05-12T00:16:24.139Z,11.70
2023-05-12T00:18:53.225Z,11.70
2023-05-12T00:21:22.958Z,11.70
2023-05-12T00:23:51.320Z,11.70
2023-05-12T00:26:19.539Z,11.70
2023-05-12T00:28:48.724Z,11.70
2023-05-12T00:31:17.090Z,11.70
2023-05-12T00:33:45.473Z,11.60
2023-05-12T00:36:13.655Z,11.60
2023-05-12T00:38:43.410Z,11.60
2023-05-12T00:41:11.686Z,11.60
2023-05-12T00:43:40.034Z,11.60
2023-05-12T00:46:09.197Z,11.60
2023-05-12T00:48:37.919Z,11.60
2023-05-12T00:51:06.795Z,11.60
2023-05-12T00:53:45.457Z,11.60
2023-05-12T00:56:20.438Z,11.60
2023-05-12T00:58:49.174Z,11.60
2023-05-12T01:01:18.919Z,11.60
2023-05-12T01:03:49.977Z,11.50
2023-05-12T01:06:24.191Z,11.50
2023-05-12T01:08:54.574Z,11.50
2023-05-12T01:11:25.169Z,11.50
2023-05-12T01:13:53.415Z,11.50
2023-05-12T01:16:25.052Z,11.50
2023-05-12T01:18:57.172Z,11.50
2023-05-12T01:21:25.853Z,11.50
2023-05-12T01:23:59.738Z,11.50
2023-05-12T01:26:33.345Z,11.50
2023-05-12T01:29:03.769Z,11.50
2023-05-12T01:31:33.250Z,11.40
2023-05-12T01:34:01.906Z,11.50
2023-05-12T01:36:31.593Z,11.50
2023-05-12T01:39:00.507Z,11.40
2023-05-12T01:41:28.835Z,11.40
2023-05-12T01:43:58.707Z,11.50
2023-05-12T01:46:27.712Z,11.40
2023-05-12T01:48:59.030Z,11.40
2023-05-12T01:51:27.805Z,11.40
2023-05-12T01:53:57.834Z,11.40
2023-05-12T01:56:28.861Z,11.40
2023-05-12T01:58:58.922Z,11.40
2023-05-12T02:01:28.756Z,11.40
2023-05-12T02:03:59.089Z,11.40
2023-05-12T02:06:28.477Z,11.40
2023-05-12T02:08:58.144Z,11.40
2023-05-12T02:11:26.978Z,11.40
2023-05-12T02:13:55.456Z,11.40
2023-05-12T02:16:26.310Z,11.40
2023-05-12T02:18:54.769Z,11.40
2023-05-12T02:21:23.123Z,11.40
2023-05-12T02:23:56.282Z,11.40
2023-05-12T02:26:24.599Z,11.40
2023-05-12T02:28:53.160Z,11.40
2023-05-12T02:31:22.149Z,11.40
2023-05-12T02:33:52.596Z,11.40
2023-05-12T02:36:21.170Z,11.30
2023-05-12T02:38:49.494Z,11.30
2023-05-12T02:41:17.765Z,11.30
2023-05-12T02:43:46.057Z,11.30
2023-05-12T02:46:14.364Z,11.30
2023-05-12T02:48:43.174Z,11.30
2023-05-12T02:51:13.258Z,11.30
2023-05-12T02:53:41.940Z,11.30
2023-05-12T02:56:10.292Z,11.30
2023-05-12T02:58:38.761Z,11.30
2023-05-12T03:01:11.159Z,11.20
2023-05-12T03:03:41.276Z,11.20
2023-05-12T03:06:10.457Z,11.20
2023-05-12T03:08:43.385Z,11.30
2023-05-12T03:11:11.985Z,11.20
2023-05-12T03:13:40.425Z,11.20
2023-05-12T03:16:08.919Z,11.20
2023-05-12T03:18:37.310Z,11.20
2023-05-12T03:21:07.350Z,11.20
2023-05-12T03:23:36.739Z,11.20
2023-05-12T03:26:06.309Z,11.10
2023-05-12T03:28:34.699Z,11.10
2023-05-12T03:31:03.042Z,11.10
2023-05-12T03:33:31.531Z,11.10
2023-05-12T03:36:00.189Z,11.10
2023-05-12T03:38:28.743Z,11.10
2023-05-12T03:41:06.511Z,11.10
2023-05-12T03:43:36.195Z,11.10
2023-05-12T03:46:05.053Z,11.10
2023-05-12T03:48:33.373Z,11.00
2023-05-12T03:51:01.769Z,11.10
2023-05-12T03:53:30.080Z,11.10
2023-05-12T03:55:58.918Z,11.10
2023-05-12T03:58:29.187Z,11.10
2023-05-12T04:00:58.151Z,11.10
2023-05-12T04:03:26.428Z,11.10
2023-05-12T04:05:59.488Z,11.10
2023-05-12T04:08:27.829Z,11.10
2023-05-12T04:10:57.524Z,11.10
2023-05-12T04:13:26.519Z,11.10
2023-05-12T04:15:58.220Z,11.20
2023-05-12T04:18:27.888Z,11.20
2023-05-12T04:20:56.863Z,11.20
2023-05-12T04:23:25.925Z,11.20
2023-05-12T04:25:54.346Z,11.20
2023-05-12T04:28:22.624Z,11.20
2023-05-12T04:30:51.013Z,11.30
2023-05-12T04:33:21.006Z,11.30
2023-05-12T04:35:49.496Z,11.40
2023-05-12T04:38:17.712Z,11.40
2023-05-12T04:40:45.973Z,11.40
2023-05-12T04:45:45.725Z,11.50
2023-05-12T04:48:13.973Z,11.50
2023-05-12T04:50:44.473Z,11.60
2023-05-12T04:53:14.130Z,11.60
2023-05-12T04:55:42.772Z,11.60
2023-05-12T04:58:11.014Z,11.70
2023-05-12T05:00:39.318Z,11.70
2023-05-12T05:03:07.956Z,11.80
2023-05-12T05:05:36.710Z,11.80
2023-05-12T05:08:06.360Z,11.80
2023-05-12T05:10:35.903Z,11.80
2023-05-12T05:13:04.526Z,11.80
2023-05-12T05:15:32.907Z,11.80
2023-05-12T05:18:02.154Z,11.80
2023-05-12T05:20:32.782Z,11.70
2023-05-12T05:23:01.308Z,11.70
2023-05-12T05:25:31.154Z,11.70
2023-05-12T05:27:59.727Z,11.70
2023-05-12T05:30:28.349Z,11.70
2023-05-12T05:32:56.667Z,11.80
2023-05-12T05:35:25.238Z,11.80
2023-05-12T05:37:55.240Z,11.80
2023-05-12T05:40:24.289Z,11.90
2023-05-12T05:42:54.329Z,11.90
2023-05-12T05:45:22.871Z,12.00
2023-05-12T05:47:53.238Z,12.00
2023-05-12T05:50:23.040Z,12.00
2023-05-12T05:52:51.280Z,12.10
2023-05-12T05:55:20.053Z,12.20
2023-05-12T05:57:49.019Z,12.10
2023-05-12T06:00:19.405Z,12.20
2023-05-12T06:02:52.342Z,12.20
2023-05-12T06:05:23.264Z,12.20
2023-05-12T06:07:52.449Z,12.30
2023-05-12T06:10:21.499Z,12.30
2023-05-12T06:12:50.329Z,12.30
2023-05-12T06:15:20.363Z,12.30
2023-05-12T06:17:51.377Z,12.40
2023-05-12T06:20:20.071Z,12.40
2023-05-12T06:22:48.261Z,12.50
2023-05-12T06:25:18.537Z,12.50
2023-05-12T06:27:46.878Z,12.50
2023-05-12T06:30:16.309Z,12.60
2023-05-12T06:32:46.121Z,12.60
2023-05-12T06:35:14.459Z,12.70
2023-05-12T06:37:44.755Z,12.80
2023-05-12T06:40:16.938Z,12.90
2023-05-12T06:42:45.312Z,13.00
2023-05-12T06:45:21.257Z,13.00
2023-05-12T06:47:51.597Z,13.10
2023-05-12T06:50:20.608Z,13.20
2023-05-12T06:52:53.704Z,13.20
2023-05-12T06:55:22.739Z,13.30
2023-05-12T06:57:55.605Z,13.50
2023-05-12T07:00:24.655Z,13.60
2023-05-12T07:02:54.182Z,13.80
2023-05-12T07:05:22.903Z,13.90
2023-05-12T07:07:52.037Z,14.00
2023-05-12T07:10:21.855Z,14.00
2023-05-12T07:12:50.089Z,14.20
2023-05-12T07:15:18.862Z,14.20
2023-05-12T07:17:47.608Z,14.20
2023-05-12T07:20:17.999Z,14.10
2023-05-12T07:22:46.478Z,14.00
2023-05-12T07:25:15.945Z,13.90
2023-05-12T07:27:44.374Z,13.90
2023-05-12T07:30:13.108Z,13.80
2023-05-12T07:32:41.462Z,13.80
2023-05-12T07:35:10.495Z,13.70
2023-05-12T07:37:41.389Z,13.70
2023-05-12T07:40:10.207Z,13.60
2023-05-12T07:42:38.423Z,13.60
2023-05-12T07:45:08.229Z,13.60
2023-05-12T07:47:36.526Z,13.50
2023-05-12T07:50:05.272Z,13.50
2023-05-12T07:52:34.464Z,13.50
2023-05-12T07:55:04.173Z,13.50
2023-05-12T07:57:34.890Z,13.50
2023-05-12T08:00:03.425Z,13.60
2023-05-12T08:02:42.097Z,13.60
2023-05-12T08:05:11.315Z,13.60
2023-05-12T08:07:43.403Z,13.70
2023-05-12T08:10:13.996Z,13.80
2023-05-12T08:12:43.017Z,13.90
2023-05-12T08:15:12.399Z,13.90
2023-05-12T08:17:41.023Z,14.00
2023-05-12T08:20:10.705Z,14.10
2023-05-12T08:22:39.887Z,14.20
2023-05-12T08:25:11.661Z,14.30
2023-05-12T08:27:42.024Z,14.50
2023-05-12T08:30:11.216Z,14.60
2023-05-12T08:32:39.560Z,14.70
2023-05-12T08:35:08.263Z,14.80
2023-05-12T08:37:36.635Z,14.90
2023-05-12T08:40:14.290Z,15.00
2023-05-12T08:42:45.133Z,15.20
2023-05-12T08:45:13.609Z,15.30
2023-05-12T08:47:43.671Z,15.40
2023-05-12T08:50:13.882Z,15.50
2023-05-12T08:52:42.466Z,15.60
2023-05-12T08:55:11.807Z,15.70
2023-05-12T09:00:52.572Z,15.70
2023-05-12T09:03:22.645Z,15.80
2023-05-12T09:05:51.120Z,15.80
2023-05-12T09:08:19.526Z,15.90
2023-05-12T09:10:49.334Z,16.00
2023-05-12T09:13:27.563Z,16.00
2023-05-12T09:15:58.807Z,16.10
2023-05-12T09:18:27.162Z,16.10
2023-05-12T09:20:55.474Z,16.20
2023-05-12T09:23:23.802Z,16.40
2023-05-12T09:26:01.340Z,16.70
2023-05-12T09:28:38.450Z,16.70
2023-05-12T09:31:17.503Z,16.60
2023-05-12T09:33:46.063Z,16.50
2023-05-12T09:36:18.411Z,16.40
2023-05-12T09:38:46.721Z,16.20
2023-05-12T09:41:23.196Z,16.00
2023-05-12T09:43:54.887Z,15.80
2023-05-12T09:46:23.474Z,15.70
2023-05-12T09:48:51.810Z,15.60
2023-05-12T09:51:20.181Z,15.40
2023-05-12T09:53:48.608Z,15.30
2023-05-12T09:56:18.492Z,15.10
2023-05-12T09:58:48.722Z,15.00
2023-05-12T10:01:23.186Z,15.00
2023-05-12T10:03:54.604Z,14.90
2023-05-12T10:06:28.126Z,14.80
2023-05-12T10:09:05.077Z,14.80
2023-05-12T10:11:33.553Z,14.80
2023-05-12T10:14:02.207Z,15.00
2023-05-12T10:16:32.821Z,15.30
2023-05-12T10:19:01.572Z,15.60
2023-05-12T10:21:30.134Z,15.70
2023-05-12T10:23:58.866Z,15.90
2023-05-12T10:26:27.422Z,15.90
2023-05-12T10:28:56.032Z,16.00
2023-05-12T10:31:25.818Z,16.00
2023-05-12T10:33:59.512Z,16.00
2023-05-12T10:36:28.714Z,15.80
2023-05-12T10:38:57.421Z,15.70
2023-05-12T10:41:32.852Z,15.60
2023-05-12T10:44:01.822Z,15.50
2023-05-12T10:46:31.062Z,15.40
2023-05-12T10:49:03.372Z,15.40
2023-05-12T10:51:33.146Z,15.40
2023-05-12T10:54:03.674Z,15.50
2023-05-12T10:56:43.293Z,15.80
2023-05-12T10:59:17.251Z,16.20
2023-05-12T11:01:58.942Z,16.60
2023-05-12T11:04:40.850Z,17.00
2023-05-12T11:07:12.118Z,17.40
2023-05-12T11:09:50.728Z,17.70
2023-05-12T11:12:26.440Z,18.00
2023-05-12T11:14:54.879Z,18.30
2023-05-12T11:17:23.301Z,18.30
2023-05-12T11:19:54.934Z,18.30
2023-05-12T11:22:24.289Z,18.50
2023-05-12T11:24:53.340Z,18.80
2023-05-12T11:27:23.829Z,19.10
2023-05-12T11:32:40.798Z,19.30
2023-05-12T11:35:12.464Z,19.30
2023-05-12T11:37:41.789Z,19.20
2023-05-12T11:40:15.599Z,19.10
2023-05-12T11:42:48.343Z,18.90
2023-05-12T11:45:27.045Z,18.70
2023-05-12T11:48:07.153Z,18.60
2023-05-12T11:50:39.234Z,18.60
2023-05-12T11:53:14.425Z,18.50
2023-05-12T11:55:49.886Z,18.40
2023-05-12T11:58:21.709Z,18.30
2023-05-12T12:00:50.193Z,18.10
2023-05-12T12:03:18.725Z,18.00
2023-05-12T12:05:59.950Z,17.80
2023-05-12T12:08:28.337Z,17.80
2023-05-12T12:10:56.771Z,17.70
2023-05-12T12:13:26.383Z,17.80
2023-05-12T12:15:54.887Z,17.80
2023-05-12T12:18:23.335Z,17.80
2023-05-12T12:20:53.039Z,17.90
2023-05-12T12:23:21.369Z,17.90
2023-05-12T12:25:49.655Z,17.90
2023-05-12T12:28:18.118Z,18.00
2023-05-12T12:30:46.425Z,18.00
2023-05-12T12:33:14.872Z,18.00
2023-05-12T12:35:43.134Z,18.10
2023-05-12T12:38:12.761Z,18.20
2023-05-12T12:40:41.146Z,18.30
2023-05-12T12:43:09.559Z,18.40
2023-05-12T12:45:37.872Z,18.40
2023-05-12T12:48:06.869Z,18.60
2023-05-12T12:50:36.675Z,18.80
2023-05-12T12:53:04.971Z,19.10
2023-05-12T12:55:34.563Z,19.40
2023-05-12T12:58:02.824Z,19.70
2023-05-12T13:00:31.201Z,19.80
2023-05-12T13:03:01.050Z,20.10
2023-05-12T13:05:29.659Z,20.30
2023-05-12T13:07:57.989Z,20.40
2023-05-12T13:10:26.666Z,20.50
2023-05-12T13:12:56.208Z,20.60
2023-05-12T13:15:24.883Z,20.50
2023-05-12T13:17:53.493Z,20.40
2023-05-12T13:20:21.959Z,20.40
2023-05-12T13:22:50.628Z,20.30
2023-05-12T13:25:19.135Z,20.30
2023-05-12T13:27:47.526Z,20.40
2023-05-12T13:30:17.224Z,20.80
2023-05-12T13:32:46.740Z,21.00
2023-05-12T13:35:15.165Z,21.10
2023-05-12T13:37:43.374Z,21.20
2023-05-12T13:40:12.389Z,21.20
2023-05-12T13:42:40.774Z,21.20
2023-05-12T13:45:10.438Z,21.70
2023-05-12T13:47:41.085Z,22.00
2023-05-12T13:50:10.225Z,22.00
2023-05-12T13:52:38.402Z,21.90
2023-05-12T13:55:07.362Z,21.60
2023-05-12T13:57:35.710Z,21.50
2023-05-12T14:00:04.338Z,21.40
2023-05-12T14:02:34.158Z,21.30
2023-05-12T14:05:04.266Z,21.30
2023-05-12T14:07:32.774Z,21.20
2023-05-12T14:10:01.558Z,21.40
2023-05-12T14:12:30.074Z,21.60
2023-05-12T14:15:11.939Z,21.60
2023-05-12T14:17:48.235Z,21.50
2023-05-12T14:20:18.022Z,21.30
2023-05-12T14:22:46.279Z,21.50
2023-05-12T14:25:16.038Z,22.10
2023-05-12T14:27:45.246Z,22.60
2023-05-12T14:30:14.553Z,23.10
2023-05-12T14:32:43.050Z,23.60
2023-05-12T14:35:13.026Z,24.10
2023-05-12T14:37:42.632Z,24.30
2023-05-12T14:40:12.311Z,24.40
2023-05-12T14:42:40.601Z,24.10
2023-05-12T14:45:09.868Z,23.50
2023-05-12T14:47:38.146Z,23.10
2023-05-12T14:50:07.348Z,22.60
2023-05-12T14:52:38.306Z,22.10
2023-05-12T14:55:12.138Z,21.70
2023-05-12T14:57:41.060Z,21.20
2023-05-12T15:00:10.953Z,20.90
2023-05-12T15:02:39.800Z,20.60
2023-05-12T15:05:09.435Z,20.30
2023-05-12T15:07:38.212Z,20.00
2023-05-12T15:10:08.982Z,19.70
2023-05-12T15:12:37.283Z,19.50
2023-05-12T15:15:08.402Z,19.30
2023-05-12T15:17:37.613Z,19.20
2023-05-12T15:20:06.877Z,19.10
2023-05-12T15:22:35.358Z,19.00
2023-05-12T15:25:04.914Z,18.80
2023-05-12T15:27:34.640Z,18.80
2023-05-12T15:30:02.933Z,18.60
2023-05-12T15:32:31.818Z,18.50
2023-05-12T15:35:00.191Z,18.50
2023-05-12T15:37:28.468Z,18.60
2023-05-12T15:39:56.721Z,18.60
2023-05-12T15:42:29.998Z,18.50
2023-05-12T15:45:02.693Z,18.40
2023-05-12T15:47:31.158Z,18.20
2023-05-12T15:49:59.496Z,18.10
2023-05-12T15:52:28.192Z,17.90
2023-05-12T15:54:56.514Z,17.90
2023-05-12T15:57:24.796Z,17.90
2023-05-12T15:59:58.574Z,17.80
2023-05-12T16:02:28.267Z,17.70
2023-05-12T16:04:56.631Z,17.50
2023-05-12T16:07:29.247Z,17.30
2023-05-12T16:09:57.779Z,17.10
2023-05-12T16:12:26.066Z,16.90
2023-05-12T16:14:54.861Z,16.80
2023-05-12T16:17:23.135Z,16.70
2023-05-12T16:19:56.226Z,16.60
2023-05-12T16:22:24.635Z,16.40
2023-05-12T16:24:53.726Z,16.30
2023-05-12T16:27:22.055Z,16.20
2023-05-12T16:29:53.259Z,16.10
2023-05-12T16:32:21.798Z,16.00
2023-05-12T16:34:50.194Z,15.90
2023-05-12T16:37:19.840Z,15.80
2023-05-12T16:39:48.078Z,15.70
2023-05-12T16:42:16.474Z,15.70
2023-05-12T16:44:44.858Z,15.60
2023-05-12T16:47:13.082Z,15.60
2023-05-12T16:49:41.448Z,15.50
2023-05-12T16:52:11.988Z,15.40
2023-05-12T16:54:42.204Z,15.40
2023-05-12T17:00:50.895Z,15.30
2023-05-12T17:03:19.390Z,15.20
2023-05-12T17:06:13.222Z,15.20
2023-05-12T17:08:41.616Z,15.20
2023-05-12T17:11:11.121Z,15.10
2023-05-12T17:13:39.468Z,15.10
2023-05-12T17:16:08.986Z,15.00
2023-05-12T17:21:09.042Z,14.90
2023-05-12T17:23:37.688Z,14.90
2023-05-12T17:26:06.305Z,14.90
2023-05-12T17:28:36.089Z,14.90
2023-05-12T17:31:04.483Z,15.00
2023-05-12T17:33:32.826Z,14.90
2023-05-12T17:36:11.829Z,14.90
2023-05-12T17:38:42.115Z,14.80
2023-05-12T17:41:10.370Z,14.80
2023-05-12T17:43:40.048Z,14.80
2023-05-12T17:46:09.109Z,14.80
2023-05-12T17:48:38.501Z,14.70
2023-05-12T17:51:07.480Z,14.70
2023-05-12T17:53:36.446Z,14.60
2023-05-12T17:56:05.028Z,14.50
2023-05-12T17:58:33.650Z,14.50
2023-05-12T18:01:03.344Z,14.30
2023-05-12T18:03:31.879Z,14.20
2023-05-12T18:06:00.152Z,14.10
2023-05-12T18:08:28.561Z,14.10
2023-05-12T18:10:56.816Z,14.00
2023-05-12T18:13:25.234Z,13.90
2023-05-12T18:15:53.479Z,13.90
2023-05-12T18:18:23.708Z,13.90
2023-05-12T18:20:51.995Z,13.80
2023-05-12T18:23:20.324Z,13.80
2023-05-12T18:25:48.516Z,13.80
2023-05-12T18:28:16.841Z,13.80
2023-05-12T18:30:45.221Z,13.80
2023-05-12T18:33:13.658Z,13.70
2023-05-12T18:35:43.149Z,13.70
2023-05-12T18:38:11.447Z,13.60
2023-05-12T18:40:40.256Z,13.60
2023-05-12T18:43:08.603Z,13.50
2023-05-12T18:45:36.917Z,13.40
2023-05-12T18:48:05.565Z,13.40
2023-05-12T18:50:33.880Z,13.30
2023-05-12T18:53:03.473Z,13.30
2023-05-12T18:55:31.879Z,13.20
2023-05-12T18:58:00.419Z,13.10
2023-05-12T19:00:31.867Z,13.10
2023-05-12T19:03:00.372Z,13.00
2023-05-12T19:05:28.803Z,12.90
2023-05-12T19:07:57.200Z,12.90
2023-05-12T19:10:27.989Z,12.90
2023-05-12T19:12:56.377Z,12.80
2023-05-12T19:15:24.759Z,12.80
2023-05-12T19:17:53.461Z,12.80
2023-05-12T19:20:22.023Z,12.70
2023-05-12T19:22:50.774Z,12.70
2023-05-12T19:25:19.264Z,12.70
2023-05-12T19:27:49.622Z,12.60
2023-05-12T19:30:18.097Z,12.60
2023-05-12T19:32:46.713Z,12.60
2023-05-12T19:35:16.581Z,12.60
2023-05-12T19:37:45.021Z,12.50
2023-05-12T19:40:13.806Z,12.50
2023-05-12T19:42:42.463Z,12.40
2023-05-12T19:45:12.749Z,12.40
2023-05-12T19:47:41.419Z,12.30
2023-05-12T19:50:11.272Z,12.20
2023-05-12T19:52:39.598Z,12.20
2023-05-12T19:55:09.028Z,12.10
2023-05-12T19:57:38.101Z,12.00
2023-05-12T20:00:08.914Z,11.90
2023-05-12T20:02:45.952Z,11.80
2023-05-12T20:05:14.442Z,11.70
2023-05-12T20:07:42.586Z,11.60
2023-05-12T20:10:11.704Z,11.50
2023-05-12T20:12:40.040Z,11.40
2023-05-12T20:15:09.780Z,11.30
2023-05-12T20:17:38.035Z,11.20
2023-05-12T20:20:11.304Z,11.10
2023-05-12T20:22:39.940Z,11.10
2023-05-12T20:25:08.789Z,11.00
2023-05-12T20:27:37.035Z,11.00
2023-05-12T20:30:06.419Z,11.00
2023-05-12T20:32:34.631Z,10.90
2023-05-12T20:35:03.286Z,10.90
2023-05-12T20:37:33.131Z,10.80
2023-05-12T20:40:02.351Z,10.70
2023-05-12T20:42:31.945Z,10.60
2023-05-12T20:45:00.465Z,10.50
2023-05-12T20:47:30.310Z,10.40
2023-05-12T20:50:50.317Z,10.40
2023-05-12T20:53:20.117Z,10.30
2023-05-12T20:55:48.379Z,10.30
2023-05-12T20:58:16.989Z,10.20
2023-05-12T21:00:48.135Z,10.20
2023-05-12T21:03:23.933Z,10.20
2023-05-12T21:05:52.689Z,10.20
2023-05-12T21:08:22.436Z,10.20
2023-05-12T21:10:51.149Z,10.20
2023-05-12T21:13:19.840Z,10.20
2023-05-12T21:15:48.120Z,10.20
2023-05-12T21:18:17.551Z,10.20
2023-05-12T21:20:51.049Z,10.20
2023-05-12T21:23:23.075Z,10.20
2023-05-12T21:25:58.351Z,10.20
2023-05-12T21:28:27.258Z,10.20
2023-05-12T21:30:55.837Z,10.20
2023-05-12T21:33:24.118Z,10.20
2023-05-12T21:35:52.434Z,10.20
2023-05-12T21:38:20.901Z,10.20
2023-05-12T21:40:51.832Z,10.10
2023-05-12T21:43:21.457Z,10.10
2023-05-12T21:45:49.744Z,10.10
2023-05-12T21:48:18.069Z,10.10
2023-05-12T21:50:46.449Z,10.00
2023-05-12T21:53:14.791Z,10.00
2023-05-12T21:55:46.714Z,10.00
2023-05-12T21:58:15.180Z,10.00
2023-05-12T22:00:44.691Z,9.90
2023-05-12T22:03:13.291Z,9.90
2023-05-12T22:05:41.546Z,9.80
2023-05-12T22:08:09.870Z,9.70
2023-05-12T22:10:38.123Z,9.70
2023-05-12T22:13:06.434Z,9.70
2023-05-12T22:15:34.858Z,9.60
2023-05-12T22:18:05.426Z,9.60
2023-05-12T22:20:33.732Z,9.60
2023-05-12T22:23:02.049Z,9.60
2023-05-12T22:25:30.335Z,9.50
2023-05-12T22:27:58.996Z,9.50
2023-05-12T22:30:27.273Z,9.50
2023-05-12T22:32:56.197Z,9.50
2023-05-12T22:35:25.685Z,9.50
2023-05-12T22:37:54.076Z,9.50
2023-05-12T22:40:23.157Z,9.50
2023-05-12T22:42:51.612Z,9.50
2023-05-12T22:45:19.994Z,9.40
2023-05-12T22:47:48.351Z,9.40
2023-05-12T22:50:16.720Z,9.40
2023-05-12T22:52:46.439Z,9.40
2023-05-12T22:55:14.785Z,9.40
2023-05-12T22:57:45.303Z,9.40
2023-05-12T23:00:14.420Z,9.40
2023-05-12T23:02:42.785Z,9.40
2023-05-12T23:05:11.171Z,9.40
2023-05-12T23:07:39.525Z,9.40
2023-05-12T23:10:09.997Z,9.50
2023-05-12T23:12:39.114Z,9.50
2023-05-12T23:15:08.471Z,9.50
2023-05-12T23:17:36.875Z,9.60
2023-05-12T23:20:05.878Z,9.60
2023-05-12T23:22:35.069Z,9.60
2023-05-12T23:25:03.378Z,9.70
2023-05-12T23:27:33.058Z,9.60
2023-05-12T23:30:01.436Z,9.60
2023-05-12T23:32:29.908Z,9.60
2023-05-12T23:34:58.310Z,9.60
2023-05-12T23:37:26.926Z,9.60
2023-05-12T23:39:55.212Z,9.60
2023-05-12T23:42:23.538Z,9.60
2023-05-12T23:44:53.013Z,9.50
2023-05-12T23:47:21.311Z,9.50
2023-05-12T23:49:49.497Z,9.50
2023-05-12T23:52:17.810Z,9.50
2023-05-12T23:54:46.131Z,9.50
2023-05-12T23:57:14.542Z,9.50
2023-05-12T23:59:42.808Z,9.50
